createdAt,value
2023-05-23T00:00:45.702Z,82.94
2023-05-23T00:03:13.723Z,82.81
2023-05-23T00:05:40.957Z,82.93
2023-05-23T00:08:08.276Z,83.11
2023-05-23T00:10:35.166Z,82.98
2023-05-23T00:13:05.600Z,82.74
2023-05-23T00:15:34.241Z,82.66
2023-05-23T00:18:01.155Z,82.83
2023-05-23T00:20:30.475Z,82.68
2023-05-23T00:22:59.794Z,82.82
2023-05-23T00:25:34.462Z,82.84
2023-05-23T00:28:01.822Z,82.68
2023-05-23T00:30:32.745Z,82.54
2023-05-23T00:33:00.388Z,82.83
2023-05-23T00:35:28.077Z,82.95
2023-05-23T00:37:55.733Z,83.01
2023-05-23T00:40:23.689Z,82.84
2023-05-23T00:42:52.930Z,82.90
2023-05-23T00:45:19.797Z,82.77
2023-05-23T00:47:47.900Z,82.97
2023-05-23T00:50:16.233Z,82.53
2023-05-23T00:52:44.550Z,82.55
2023-05-23T00:55:12.425Z,82.33
2023-05-23T00:57:44.990Z,82.56
2023-05-23T01:00:13.967Z,82.63
2023-05-23T01:02:45.283Z,82.51
2023-05-23T01:05:17.863Z,82.37
2023-05-23T01:07:45.906Z,82.54
2023-05-23T01:10:14.978Z,82.23
2023-05-23T01:13:20.085Z,82.20
2023-05-23T01:16:03.516Z,82.19
2023-05-23T01:18:38.443Z,82.13
2023-05-23T01:21:25.526Z,82.42
2023-05-23T01:24:11.191Z,82.32
2023-05-23T01:26:43.358Z,82.61
2023-05-23T01:29:37.360Z,82.29
2023-05-23T01:32:09.440Z,82.71
2023-05-23T01:34:37.121Z,83.16
2023-05-23T01:37:19.892Z,83.31
2023-05-23T01:39:49.505Z,83.24
2023-05-23T01:42:19.775Z,83.41
2023-05-23T01:44:47.558Z,83.54
2023-05-23T01:47:18.237Z,83.67
2023-05-23T01:49:46.136Z,84.03
2023-05-23T01:52:14.005Z,84.10
2023-05-23T01:54:44.688Z,84.29
2023-05-23T01:57:16.241Z,84.14
2023-05-23T01:59:43.154Z,84.32
2023-05-23T02:02:10.065Z,84.25
2023-05-23T02:04:37.125Z,84.38
2023-05-23T02:07:04.074Z,83.91
2023-05-23T02:09:31.061Z,83.95
2023-05-23T02:11:57.823Z,83.73
2023-05-23T02:14:28.579Z,83.73
2023-05-23T02:16:55.479Z,83.70
2023-05-23T02:19:22.349Z,83.49
2023-05-23T02:21:49.192Z,83.61
2023-05-23T02:24:15.890Z,83.93
2023-05-23T02:26:42.622Z,83.75
2023-05-23T02:29:12.481Z,83.70
2023-05-23T02:31:39.326Z,83.72
2023-05-23T02:34:06.296Z,83.55
2023-05-23T02:36:33.600Z,83.50
2023-05-23T02:39:04.151Z,83.85
2023-05-23T02:41:31.189Z,83.87
2023-05-23T02:44:01.268Z,83.75
2023-05-23T02:46:31.113Z,83.53
2023-05-23T02:48:57.787Z,83.78
2023-05-23T02:51:24.637Z,84.06
2023-05-23T02:53:51.767Z,83.91
2023-05-23T02:56:19.126Z,83.82
2023-05-23T02:58:45.795Z,84.03
2023-05-23T03:01:12.546Z,83.82
2023-05-23T03:03:40.136Z,83.97
2023-05-23T03:06:07.337Z,84.15
2023-05-23T03:08:34.072Z,84.02
2023-05-23T03:11:03.371Z,84.11
2023-05-23T03:13:30.569Z,84.01
2023-05-23T03:16:02.796Z,84.28
2023-05-23T03:18:29.546Z,83.76
2023-05-23T03:20:58.619Z,84.06
2023-05-23T03:23:27.603Z,84.29
2023-05-23T03:25:54.358Z,84.15
2023-05-23T03:28:21.282Z,84.32
2023-05-23T03:30:47.913Z,84.34
2023-05-23T03:33:14.612Z,84.76
2023-05-23T03:35:42.027Z,84.52
2023-05-23T03:38:11.593Z,84.72
2023-05-23T03:40:38.339Z,84.66
2023-05-23T03:43:06.766Z,84.69
2023-05-23T03:45:34.202Z,84.47
2023-05-23T03:48:01.468Z,84.66
2023-05-23T03:50:28.561Z,84.55
2023-05-23T03:52:55.887Z,84.43
2023-05-23T03:55:24.483Z,84.56
2023-05-23T03:57:52.138Z,84.44
2023-05-23T04:00:19.618Z,84.47
2023-05-23T04:02:47.144Z,84.59
2023-05-23T04:05:14.065Z,84.40
2023-05-23T04:07:42.051Z,84.34
2023-05-23T04:10:10.326Z,84.27
2023-05-23T04:12:37.764Z,84.48
2023-05-23T04:15:05.398Z,84.38
2023-05-23T04:17:35.394Z,84.62
2023-05-23T04:20:03.220Z,84.78
2023-05-23T04:22:30.410Z,84.71
2023-05-23T04:24:57.671Z,84.67
2023-05-23T04:27:26.344Z,84.65
2023-05-23T04:29:56.841Z,84.57
2023-05-23T04:32:24.265Z,84.13
2023-05-23T04:34:53.768Z,84.66
2023-05-23T04:37:26.562Z,84.50
2023-05-23T04:39:53.642Z,84.81
2023-05-23T04:42:25.025Z,84.84
2023-05-23T04:44:57.668Z,84.76
2023-05-23T04:47:28.982Z,84.68
2023-05-23T04:49:58.395Z,84.91
2023-05-23T04:52:25.825Z,84.53
2023-05-23T04:54:54.251Z,84.55
2023-05-23T04:57:22.364Z,84.43
2023-05-23T04:59:49.488Z,84.14
2023-05-23T05:02:16.469Z,83.99
2023-05-23T05:04:45.964Z,84.00
2023-05-23T05:07:13.284Z,83.90
2023-05-23T05:09:40.068Z,83.72
2023-05-23T05:12:07.174Z,83.71
2023-05-23T05:14:33.963Z,83.54
2023-05-23T05:17:03.048Z,83.43
2023-05-23T05:19:30.124Z,83.37
2023-05-23T05:21:57.946Z,83.51
2023-05-23T05:24:28.097Z,83.57
2023-05-23T05:26:55.863Z,83.57
2023-05-23T05:29:22.895Z,83.46
2023-05-23T05:31:49.970Z,83.72
2023-05-23T05:34:16.775Z,83.59
2023-05-23T05:36:48.158Z,83.36
2023-05-23T05:39:18.036Z,83.58
2023-05-23T05:41:44.955Z,83.46
2023-05-23T05:44:12.308Z,83.74
2023-05-23T05:46:39.357Z,83.68
2023-05-23T05:49:06.500Z,83.59
2023-05-23T05:51:38.825Z,83.74
2023-05-23T05:54:06.167Z,83.71
2023-05-23T05:56:33.113Z,83.45
2023-05-23T05:59:00.420Z,83.94
2023-05-23T06:01:27.313Z,83.87
2023-05-23T06:03:54.577Z,83.68
2023-05-23T06:06:22.415Z,83.39
2023-05-23T06:08:49.370Z,83.17
2023-05-23T06:11:17.017Z,82.91
2023-05-23T06:13:44.164Z,82.62
2023-05-23T06:16:11.152Z,82.95
2023-05-23T06:18:41.432Z,82.79
2023-05-23T06:21:10.575Z,82.51
2023-05-23T06:23:37.830Z,82.69
2023-05-23T06:26:10.797Z,82.80
2023-05-23T06:28:41.267Z,82.58
2023-05-23T06:31:10.431Z,82.34
2023-05-23T06:33:46.199Z,82.19
2023-05-23T06:36:13.267Z,81.39
2023-05-23T06:38:39.893Z,81.57
2023-05-23T06:41:07.747Z,81.34
2023-05-23T06:43:34.513Z,81.16
2023-05-23T06:46:04.032Z,80.99
2023-05-23T06:48:31.232Z,80.65
2023-05-23T06:50:58.509Z,79.85
2023-05-23T06:53:27.883Z,79.00
2023-05-23T06:55:56.947Z,78.40
2023-05-23T06:58:25.352Z,77.70
2023-05-23T07:00:52.622Z,76.65
2023-05-23T07:03:19.672Z,74.19
2023-05-23T07:05:46.862Z,72.62
2023-05-23T07:08:14.866Z,72.32
2023-05-23T07:10:42.408Z,73.00
2023-05-23T07:13:09.661Z,73.40
2023-05-23T07:15:37.436Z,72.52
2023-05-23T07:18:04.793Z,72.41
2023-05-23T07:20:35.188Z,72.64
2023-05-23T07:23:02.410Z,72.39
2023-05-23T07:25:32.022Z,72.18
2023-05-23T07:27:59.178Z,72.43
2023-05-23T07:30:29.080Z,72.31
2023-05-23T07:32:56.753Z,72.38
2023-05-23T07:35:27.047Z,72.03
2023-05-23T07:37:54.755Z,72.25
2023-05-23T07:40:22.902Z,72.07
2023-05-23T07:42:50.387Z,71.92
2023-05-23T07:45:19.977Z,72.48
2023-05-23T07:47:50.264Z,72.55
2023-05-23T07:50:18.107Z,72.74
2023-05-23T07:52:45.327Z,72.97
2023-05-23T07:55:12.796Z,72.84
2023-05-23T07:57:39.729Z,72.90
2023-05-23T08:00:07.767Z,73.13
2023-05-23T08:02:34.775Z,72.94
2023-05-23T08:05:01.870Z,73.00
2023-05-23T08:07:29.108Z,72.78
2023-05-23T08:09:58.342Z,72.75
2023-05-23T08:12:25.302Z,73.04
2023-05-23T08:14:52.846Z,72.75
2023-05-23T08:17:20.790Z,72.92
2023-05-23T08:19:50.723Z,73.15
2023-05-23T08:22:17.723Z,73.36
2023-05-23T08:24:44.836Z,73.37
2023-05-23T08:27:13.938Z,73.48
2023-05-23T08:29:44.362Z,73.71
2023-05-23T08:32:14.124Z,74.06
2023-05-23T08:34:41.372Z,73.80
2023-05-23T08:37:08.147Z,73.48
2023-05-23T08:39:35.485Z,71.95
2023-05-23T08:42:04.875Z,71.87
2023-05-23T08:44:31.866Z,72.14
2023-05-23T08:47:05.484Z,72.03
2023-05-23T08:49:35.070Z,73.11
2023-05-23T08:52:07.137Z,73.09
2023-05-23T08:54:35.780Z,73.17
2023-05-23T08:57:03.183Z,72.83
2023-05-23T08:59:32.228Z,71.92
2023-05-23T09:02:00.783Z,71.29
2023-05-23T09:04:32.430Z,70.64
2023-05-23T09:06:59.690Z,69.84
2023-05-23T09:09:26.565Z,70.21
2023-05-23T09:11:54.709Z,70.20
2023-05-23T09:14:22.859Z,69.78
2023-05-23T09:16:49.659Z,69.30
2023-05-23T09:19:16.595Z,68.34
2023-05-23T09:21:44.916Z,67.75
2023-05-23T09:24:12.784Z,67.28
2023-05-23T09:26:39.636Z,67.19
2023-05-23T09:29:07.715Z,66.79
2023-05-23T09:31:34.720Z,66.47
2023-05-23T09:34:02.507Z,66.30
2023-05-23T09:36:35.238Z,65.54
2023-05-23T09:39:06.712Z,64.87
2023-05-23T09:41:35.478Z,63.65
2023-05-23T09:44:08.428Z,62.81
2023-05-23T09:46:37.675Z,62.77
2023-05-23T09:49:15.849Z,62.21
2023-05-23T09:51:42.884Z,62.13
2023-05-23T09:54:09.979Z,62.31
2023-05-23T09:56:40.266Z,61.89
2023-05-23T09:59:08.821Z,60.37
2023-05-23T10:01:36.328Z,58.90
2023-05-23T10:04:05.206Z,58.19
2023-05-23T10:06:48.827Z,57.35
2023-05-23T10:09:19.089Z,57.21
2023-05-23T10:11:57.900Z,58.32
2023-05-23T10:14:26.857Z,57.05
2023-05-23T10:17:04.207Z,56.56
2023-05-23T10:19:52.838Z,56.82
2023-05-23T10:22:21.144Z,57.12
2023-05-23T10:24:48.790Z,56.03
2023-05-23T10:27:16.115Z,55.39
2023-05-23T10:29:44.202Z,55.64
2023-05-23T10:32:12.840Z,55.16
2023-05-23T10:34:54.971Z,54.76
2023-05-23T10:37:30.213Z,55.33
2023-05-23T10:40:06.403Z,54.96
2023-05-23T10:42:33.033Z,53.80
2023-05-23T10:45:19.875Z,52.86
2023-05-23T10:47:52.945Z,53.41
2023-05-23T10:50:42.410Z,53.33
2023-05-23T10:53:11.662Z,52.18
2023-05-23T10:55:38.541Z,51.65
2023-05-23T10:58:17.518Z,51.69
2023-05-23T11:00:54.987Z,52.21
2023-05-23T11:03:49.295Z,53.17
2023-05-23T11:06:44.813Z,53.32
2023-05-23T11:09:12.948Z,52.03
2023-05-23T11:11:54.755Z,51.61
2023-05-23T11:14:32.263Z,50.80
2023-05-23T11:17:00.623Z,50.75
2023-05-23T11:19:29.508Z,50.72
2023-05-23T11:22:03.485Z,51.09
2023-05-23T11:24:50.255Z,51.16
2023-05-23T11:27:20.386Z,50.45
2023-05-23T11:29:58.041Z,50.88
2023-05-23T11:32:28.146Z,50.53
2023-05-23T11:34:55.064Z,50.65
2023-05-23T11:37:25.902Z,50.48
2023-05-23T11:39:53.984Z,51.00
2023-05-23T11:42:26.155Z,50.05
2023-05-23T11:44:53.662Z,49.96
2023-05-23T11:47:23.366Z,50.34
2023-05-23T11:49:50.091Z,49.55
2023-05-23T11:52:16.792Z,49.91
2023-05-23T11:54:46.604Z,49.74
2023-05-23T11:57:14.370Z,49.50
2023-05-23T11:59:41.356Z,48.80
2023-05-23T12:02:08.382Z,49.83
2023-05-23T12:04:37.334Z,50.16
2023-05-23T12:07:07.703Z,50.12
2023-05-23T12:09:45.208Z,50.20
2023-05-23T12:12:12.980Z,49.74
2023-05-23T12:14:44.930Z,49.50
2023-05-23T12:17:13.263Z,49.88
2023-05-23T12:19:40.939Z,50.13
2023-05-23T12:22:09.420Z,49.62
2023-05-23T12:24:37.049Z,48.99
2023-05-23T12:27:04.275Z,48.63
2023-05-23T12:29:35.884Z,48.64
2023-05-23T12:32:07.139Z,48.46
2023-05-23T12:34:34.059Z,48.20
2023-05-23T12:37:17.992Z,48.25
2023-05-23T12:39:46.523Z,48.33
2023-05-23T12:42:13.296Z,48.04
2023-05-23T12:44:46.296Z,48.03
2023-05-23T12:47:13.437Z,47.84
2023-05-23T12:49:40.264Z,46.93
2023-05-23T12:52:09.935Z,47.31
2023-05-23T12:54:36.709Z,47.44
2023-05-23T12:57:07.954Z,47.23
2023-05-23T12:59:39.448Z,47.19
2023-05-23T13:02:09.040Z,47.41
2023-05-23T13:04:35.979Z,47.39
2023-05-23T13:07:03.216Z,47.68
2023-05-23T13:09:32.506Z,48.22
2023-05-23T13:11:59.408Z,48.29
2023-05-23T13:14:26.306Z,48.37
2023-05-23T13:16:53.106Z,47.83
2023-05-23T13:19:19.959Z,48.49
2023-05-23T13:21:49.384Z,48.60
2023-05-23T13:24:17.348Z,48.53
2023-05-23T13:26:44.440Z,48.40
2023-05-23T13:29:13.611Z,48.23
2023-05-23T13:31:43.035Z,47.76
2023-05-23T13:34:10.227Z,47.46
2023-05-23T13:36:39.357Z,47.17
2023-05-23T13:39:06.518Z,47.01
2023-05-23T13:41:33.429Z,46.52
2023-05-23T13:44:00.078Z,46.48
2023-05-23T13:46:26.957Z,46.48
2023-05-23T13:48:53.712Z,46.39
2023-05-23T13:51:20.370Z,46.31
2023-05-23T13:53:49.545Z,46.55
2023-05-23T13:56:17.097Z,46.27
2023-05-23T13:58:46.655Z,46.06
2023-05-23T14:01:13.694Z,46.25
2023-05-23T14:03:40.844Z,46.70
2023-05-23T14:06:07.924Z,46.79
2023-05-23T14:08:35.229Z,46.57
2023-05-23T14:11:04.239Z,46.79
2023-05-23T14:13:30.972Z,46.59
2023-05-23T14:15:57.680Z,46.46
2023-05-23T14:18:24.398Z,46.55
2023-05-23T14:20:53.543Z,46.69
2023-05-23T14:23:20.289Z,46.46
2023-05-23T14:25:46.984Z,46.41
2023-05-23T14:28:14.006Z,46.42
2023-05-23T14:30:45.785Z,46.13
2023-05-23T14:33:12.697Z,46.14
2023-05-23T14:35:43.003Z,46.28
2023-05-23T14:38:10.039Z,46.72
2023-05-23T14:40:36.730Z,46.58
2023-05-23T14:43:03.828Z,46.74
2023-05-23T14:45:30.719Z,46.77
2023-05-23T14:47:57.644Z,46.67
2023-05-23T14:50:25.779Z,46.67
2023-05-23T14:52:52.708Z,47.01
2023-05-23T14:55:21.614Z,46.34
2023-05-23T14:57:51.302Z,46.49
2023-05-23T15:00:19.602Z,46.62
2023-05-23T15:02:47.080Z,46.42
2023-05-23T15:05:15.489Z,46.15
2023-05-23T15:07:42.428Z,46.11
2023-05-23T15:10:09.325Z,46.04
2023-05-23T15:12:36.419Z,45.53
2023-05-23T15:15:04.198Z,45.11
2023-05-23T15:17:32.855Z,45.02
2023-05-23T15:20:04.629Z,45.31
2023-05-23T15:22:39.279Z,45.58
2023-05-23T15:25:10.888Z,45.75
2023-05-23T15:27:40.075Z,46.04
2023-05-23T15:30:07.734Z,46.54
2023-05-23T15:32:34.989Z,46.62
2023-05-23T15:35:01.873Z,46.28
2023-05-23T15:37:28.651Z,46.14
2023-05-23T15:39:55.755Z,45.88
2023-05-23T15:42:22.686Z,45.76
2023-05-23T15:44:49.463Z,44.92
2023-05-23T15:47:16.255Z,45.18
2023-05-23T15:49:43.358Z,45.46
2023-05-23T15:52:10.682Z,45.72
2023-05-23T15:54:40.248Z,45.96
2023-05-23T15:57:09.506Z,46.04
2023-05-23T15:59:37.634Z,45.39
2023-05-23T16:02:06.786Z,45.30
2023-05-23T16:04:34.187Z,45.67
2023-05-23T16:07:03.817Z,45.38
2023-05-23T16:09:30.766Z,46.02
2023-05-23T16:11:58.026Z,45.99
2023-05-23T16:14:25.080Z,46.46
2023-05-23T16:16:52.009Z,45.69
2023-05-23T16:19:19.072Z,44.99
2023-05-23T16:21:46.425Z,45.06
2023-05-23T16:24:14.350Z,45.10
2023-05-23T16:26:41.104Z,45.57
2023-05-23T16:29:08.013Z,46.40
2023-05-23T16:31:35.879Z,46.64
2023-05-23T16:34:04.942Z,46.92
2023-05-23T16:36:34.197Z,47.04
2023-05-23T16:39:03.089Z,47.31
2023-05-23T16:41:30.161Z,46.61
2023-05-23T16:43:56.973Z,46.43
2023-05-23T16:46:26.401Z,45.72
2023-05-23T16:48:56.606Z,45.45
2023-05-23T16:51:23.477Z,45.33
2023-05-23T16:53:51.013Z,45.97
2023-05-23T16:56:17.953Z,46.12
2023-05-23T16:58:45.427Z,46.03
2023-05-23T17:01:12.837Z,45.96
2023-05-23T17:03:41.774Z,45.31
2023-05-23T17:06:08.686Z,45.23
2023-05-23T17:08:35.522Z,44.97
2023-05-23T17:11:02.304Z,44.12
2023-05-23T17:13:29.059Z,43.05
2023-05-23T17:15:55.824Z,42.28
2023-05-23T17:18:22.651Z,42.89
2023-05-23T17:20:49.520Z,43.98
2023-05-23T17:23:16.642Z,44.14
2023-05-23T17:25:43.585Z,44.59
2023-05-23T17:28:11.460Z,44.85
2023-05-23T17:30:38.468Z,44.55
2023-05-23T17:33:08.408Z,45.30
2023-05-23T17:35:35.224Z,45.68
2023-05-23T17:38:04.646Z,46.11
2023-05-23T17:40:31.460Z,46.45
2023-05-23T17:42:58.180Z,46.84
2023-05-23T17:45:24.906Z,45.71
2023-05-23T17:47:51.690Z,46.20
2023-05-23T17:50:20.927Z,46.06
2023-05-23T17:52:47.968Z,45.77
2023-05-23T17:55:14.734Z,45.94
2023-05-23T17:57:41.548Z,46.16
2023-05-23T18:00:08.870Z,46.33
2023-05-23T18:02:35.665Z,46.56
2023-05-23T18:05:02.589Z,47.07
2023-05-23T18:07:32.140Z,47.57
2023-05-23T18:10:00.150Z,47.66
2023-05-23T18:12:27.221Z,47.91
2023-05-23T18:14:53.971Z,47.88
2023-05-23T18:17:21.439Z,48.37
2023-05-23T18:19:48.521Z,48.24
2023-05-23T18:22:16.828Z,47.95
2023-05-23T18:24:43.781Z,47.97
2023-05-23T18:27:10.440Z,48.09
2023-05-23T18:29:37.325Z,47.67
2023-05-23T18:32:04.150Z,47.42
2023-05-23T18:34:30.751Z,47.67
2023-05-23T18:36:57.906Z,48.28
2023-05-23T18:39:26.930Z,48.46
2023-05-23T18:41:54.156Z,48.76
2023-05-23T18:44:23.811Z,49.01
2023-05-23T18:46:51.326Z,49.37
2023-05-23T18:49:18.084Z,49.91
2023-05-23T18:51:45.751Z,50.27
2023-05-23T18:54:12.757Z,50.93
2023-05-23T18:56:39.470Z,51.30
2023-05-23T18:59:06.310Z,51.90
2023-05-23T19:01:33.642Z,51.98
2023-05-23T19:04:03.306Z,52.15
2023-05-23T19:06:30.209Z,52.50
2023-05-23T19:08:57.921Z,52.82
2023-05-23T19:11:24.749Z,52.93
2023-05-23T19:13:51.652Z,53.03
2023-05-23T19:16:20.932Z,53.06
2023-05-23T19:18:48.408Z,53.59
2023-05-23T19:21:18.495Z,53.83
2023-05-23T19:23:45.208Z,53.97
2023-05-23T19:26:13.421Z,54.32
2023-05-23T19:28:40.837Z,54.32
2023-05-23T19:31:08.115Z,54.50
2023-05-23T19:33:35.986Z,54.80
2023-05-23T19:36:05.186Z,55.22
2023-05-23T19:38:32.445Z,55.56
2023-05-23T19:40:59.480Z,55.75
2023-05-23T19:43:26.885Z,56.00
2023-05-23T19:45:53.801Z,55.92
2023-05-23T19:48:20.731Z,56.35
2023-05-23T19:50:47.791Z,56.72
2023-05-23T19:53:14.816Z,56.67
2023-05-23T19:55:42.861Z,57.05
2023-05-23T19:58:09.630Z,57.20
2023-05-23T20:00:38.792Z,57.30
2023-05-23T20:03:05.823Z,57.08
2023-05-23T20:05:33.064Z,57.53
2023-05-23T20:08:02.334Z,57.43
2023-05-23T20:10:29.091Z,57.64
2023-05-23T20:12:56.004Z,57.94
2023-05-23T20:15:38.522Z,58.10
2023-05-23T20:18:07.831Z,58.09
2023-05-23T20:20:34.910Z,58.30
2023-05-23T20:23:01.817Z,58.59
2023-05-23T20:25:28.981Z,58.96
2023-05-23T20:27:58.855Z,58.81
2023-05-23T20:30:25.753Z,59.13
2023-05-23T20:32:55.091Z,59.40
2023-05-23T20:35:22.764Z,59.35
2023-05-23T20:37:51.691Z,59.29
2023-05-23T20:40:18.802Z,59.49
2023-05-23T20:42:49.793Z,59.54
2023-05-23T20:45:16.662Z,60.14
2023-05-23T20:47:43.937Z,60.36
2023-05-23T20:50:14.163Z,60.39
2023-05-23T20:52:43.384Z,60.27
2023-05-23T20:55:11.201Z,60.33
2023-05-23T20:57:42.068Z,60.65
2023-05-23T21:00:13.312Z,60.91
2023-05-23T21:02:44.451Z,61.22
2023-05-23T21:05:14.538Z,61.37
2023-05-23T21:07:41.323Z,61.37
2023-05-23T21:10:08.503Z,61.47
2023-05-23T21:12:35.453Z,61.83
2023-05-23T21:15:02.314Z,61.83
2023-05-23T21:17:29.085Z,62.05
2023-05-23T21:19:55.893Z,62.33
2023-05-23T21:22:22.708Z,62.42
2023-05-23T21:24:50.676Z,62.88
2023-05-23T21:27:17.542Z,62.94
2023-05-23T21:29:47.306Z,63.07
2023-05-23T21:32:16.354Z,63.08
2023-05-23T21:34:45.289Z,63.69
2023-05-23T21:37:12.186Z,63.73
2023-05-23T21:39:51.230Z,64.14
2023-05-23T21:42:19.492Z,64.18
2023-05-23T21:44:46.308Z,64.68
2023-05-23T21:47:13.611Z,64.41
2023-05-23T21:49:40.704Z,65.14
2023-05-23T21:52:07.688Z,65.17
2023-05-23T21:54:37.229Z,65.10
2023-05-23T21:57:04.519Z,65.15
2023-05-23T21:59:31.265Z,65.71
2023-05-23T22:01:58.152Z,65.56
2023-05-23T22:04:25.178Z,65.54
2023-05-23T22:06:54.170Z,65.60
2023-05-23T22:09:21.087Z,66.07
2023-05-23T22:11:48.214Z,65.68
2023-05-23T22:14:17.526Z,66.25
2023-05-23T22:16:44.495Z,66.05
2023-05-23T22:19:12.404Z,66.17
2023-05-23T22:21:39.193Z,66.46
2023-05-23T22:24:06.258Z,66.93
2023-05-23T22:26:33.271Z,66.96
2023-05-23T22:29:00.416Z,67.19
2023-05-23T22:31:28.944Z,67.08
2023-05-23T22:33:56.168Z,67.07
2023-05-23T22:36:23.485Z,67.21
2023-05-23T22:38:50.589Z,67.09
2023-05-23T22:41:18.568Z,67.65
2023-05-23T22:43:45.836Z,67.86
2023-05-23T22:46:12.981Z,67.92
2023-05-23T22:48:39.926Z,68.07
2023-05-23T22:51:08.088Z,68.08
2023-05-23T22:53:35.123Z,68.31
2023-05-23T22:56:02.795Z,68.17
2023-05-23T22:58:29.883Z,68.69
2023-05-23T23:00:56.823Z,68.73
2023-05-23T23:03:23.671Z,68.42
2023-05-23T23:05:51.436Z,68.85
2023-05-23T23:08:21.475Z,68.96
2023-05-23T23:10:48.194Z,69.37
2023-05-23T23:13:15.013Z,69.46
2023-05-23T23:15:43.173Z,69.66
2023-05-23T23:18:11.071Z,69.42
2023-05-23T23:20:41.236Z,69.78
2023-05-23T23:23:10.545Z,69.12
2023-05-23T23:25:37.906Z,70.10
2023-05-23T23:28:05.147Z,70.25
2023-05-23T23:30:32.148Z,70.14
2023-05-23T23:32:59.125Z,70.40
2023-05-23T23:35:26.011Z,70.62
2023-05-23T23:37:52.841Z,70.63
2023-05-23T23:40:19.567Z,71.20
2023-05-23T23:42:46.606Z,71.10
2023-05-23T23:45:13.526Z,71.09
2023-05-23T23:47:40.406Z,70.91
2023-05-23T23:50:08.687Z,70.96
2023-05-23T23:52:39.708Z,71.56
2023-05-23T23:55:07.178Z,71.22
2023-05-23T23:57:34.231Z,71.98
